Archival Weather

Chicago O'Hare International

Chicago, Illinois (KORD)

Report from: Thursday, March 21, 2024 6:51 PM CDT
Current time: Tuesday, May 21, 2024 11:35 AM CDT

Current weather – Weather history – Daily summaries
Weather forecast

Temperature2.2°C (36.0°F)
Wind chill-1.7°C (29.0°F)
Dew point-6.7°C (19.9°F)
Winds 8 kts (4.1 m/s, 9.2 mph) East (90°)
Visibility10 mi. (16.1 km)
Clouds Scattered clouds 9,000 ft. (2,743 m)
Ceiling: Broken clouds 11,000 ft. (3,353 m)
Broken clouds 25,000 ft. (7,620 m)
Altimeter30.22 in.Hg (1023 mB)
Relative humidity52 %
Density altitude-1,861 ft. (-567 m)
Sea-level pressure102.4 kPa (1024 mB, 30.24 in.Hg)
Max temp last 6 hours5.0°C (41.0°F)
Min temp last 6 hours2.2°C (36.0°F)
Remarks System requires maintenance
Automated weather observing station with precipitation discriminator
Pressure falling, then rising
Flight conditions Visual Meteorological Conditions
Raw dataKORD 212351Z 09008KT 10SM SCT090 BKN110 BKN250 02/M07 A3022 RMK AO2 SLP240 T00221067 10050 20022 55004 $
An error has occurred. This application may no longer respond until reloaded. Reload 🗙